createdAt,value
2019-02-10T00:01:43.029Z,7.30
2019-02-10T00:04:14.026Z,7.30
2019-02-10T00:06:45.298Z,7.30
2019-02-10T00:09:16.731Z,7.30
2019-02-10T00:11:48.694Z,7.40
2019-02-10T00:14:20.500Z,7.30
2019-02-10T00:16:51.859Z,7.30
2019-02-10T00:19:23.558Z,7.40
2019-02-10T00:21:55.152Z,7.40
2019-02-10T00:24:25.832Z,7.40
2019-02-10T00:26:56.626Z,7.30
2019-02-10T00:29:27.326Z,7.30
2019-02-10T00:31:58.861Z,7.30
2019-02-10T00:34:30.096Z,7.30
2019-02-10T00:37:01.990Z,7.20
2019-02-10T00:39:33.936Z,7.30
2019-02-10T00:42:05.854Z,7.40
2019-02-10T00:44:37.837Z,7.40
2019-02-10T00:47:09.405Z,7.30
2019-02-10T00:49:41.048Z,7.30
2019-02-10T00:52:12.320Z,7.10
2019-02-10T00:54:43.726Z,7.10
2019-02-10T00:57:15.385Z,7.00
2019-02-10T00:59:46.832Z,7.00
2019-02-10T01:02:18.438Z,7.10
2019-02-10T01:04:50.029Z,7.10
2019-02-10T01:07:21.729Z,7.10
2019-02-10T01:09:52.989Z,7.10
2019-02-10T01:12:25.065Z,7.20
2019-02-10T01:14:56.389Z,7.20
2019-02-10T01:17:27.187Z,7.40
2019-02-10T01:19:59.048Z,7.40
2019-02-10T01:22:30.330Z,7.30
2019-02-10T01:25:01.982Z,7.40
2019-02-10T01:27:33.250Z,7.40
2019-02-10T01:30:05.137Z,7.40
2019-02-10T01:32:36.744Z,7.60
2019-02-10T01:35:08.130Z,7.50
2019-02-10T01:37:39.739Z,7.50
2019-02-10T01:40:12.349Z,7.40
2019-02-10T01:42:43.935Z,7.30
2019-02-10T01:45:15.503Z,7.20
2019-02-10T01:47:47.058Z,7.20
2019-02-10T01:50:18.348Z,7.10
2019-02-10T01:52:49.981Z,7.10
2019-02-10T01:55:21.302Z,7.20
2019-02-10T01:57:52.851Z,7.10
2019-02-10T02:00:24.539Z,7.10
2019-02-10T02:02:56.110Z,7.00
2019-02-10T02:05:27.368Z,7.00
2019-02-10T02:07:59.885Z,7.00
2019-02-10T02:10:30.976Z,7.00
2019-02-10T02:13:02.577Z,7.00
2019-02-10T02:15:33.597Z,7.10
2019-02-10T02:18:05.318Z,7.00
2019-02-10T02:20:36.888Z,7.00
2019-02-10T02:23:07.573Z,7.00
2019-02-10T02:25:39.132Z,7.00
2019-02-10T02:28:10.910Z,7.00
2019-02-10T02:30:42.950Z,7.10
2019-02-10T02:33:13.982Z,7.10
2019-02-10T02:35:45.864Z,7.10
2019-02-10T02:38:17.770Z,7.10
2019-02-10T02:40:49.405Z,7.10
2019-02-10T02:43:20.791Z,7.10
2019-02-10T02:45:52.026Z,7.00
2019-02-10T02:48:23.323Z,6.90
2019-02-10T02:50:54.579Z,7.00
2019-02-10T02:53:26.153Z,6.90
2019-02-10T02:55:57.453Z,7.00
2019-02-10T02:58:29.344Z,7.00
2019-02-10T03:01:01.005Z,7.00
2019-02-10T03:03:31.951Z,7.00
2019-02-10T03:06:03.630Z,6.90
2019-02-10T03:08:34.342Z,6.90
2019-02-10T03:11:05.954Z,6.90
2019-02-10T03:13:37.496Z,6.90
2019-02-10T03:16:08.482Z,6.90
2019-02-10T03:18:39.476Z,6.90
2019-02-10T03:21:10.529Z,6.80
2019-02-10T03:23:42.467Z,6.80
2019-02-10T03:26:13.730Z,6.80
2019-02-10T03:28:45.266Z,6.80
2019-02-10T03:31:16.594Z,6.80
2019-02-10T03:33:48.242Z,6.80
2019-02-10T03:36:18.953Z,6.70
2019-02-10T03:38:50.511Z,6.70
2019-02-10T03:41:21.211Z,6.70
2019-02-10T03:43:52.757Z,6.60
2019-02-10T03:46:23.818Z,6.60
2019-02-10T03:48:55.098Z,6.60
2019-02-10T03:51:26.383Z,6.50
2019-02-10T03:53:58.225Z,6.50
2019-02-10T03:56:29.520Z,6.50
2019-02-10T03:59:00.501Z,6.50
2019-02-10T04:01:32.414Z,6.50
2019-02-10T04:04:04.083Z,6.50
2019-02-10T04:06:35.333Z,6.50
2019-02-10T04:09:07.852Z,6.50
2019-02-10T04:11:40.019Z,6.40
2019-02-10T04:14:10.698Z,6.40
2019-02-10T04:16:42.585Z,6.40
2019-02-10T04:19:13.302Z,6.40
2019-02-10T04:21:45.055Z,6.40
2019-02-10T04:24:18.017Z,6.50
2019-02-10T04:26:49.632Z,6.40
2019-02-10T04:29:20.586Z,6.40
2019-02-10T04:31:51.938Z,6.30
2019-02-10T04:34:23.524Z,6.30
2019-02-10T04:36:55.062Z,6.40
2019-02-10T04:39:26.371Z,6.40
2019-02-10T04:41:58.264Z,6.40
2019-02-10T04:44:29.842Z,6.50
2019-02-10T04:47:01.770Z,6.50
2019-02-10T04:49:33.309Z,6.60
2019-02-10T04:52:04.780Z,6.70
2019-02-10T04:54:36.089Z,6.70
2019-02-10T04:57:07.681Z,6.60
2019-02-10T04:59:39.422Z,6.60
2019-02-10T05:02:10.814Z,6.60
2019-02-10T05:04:42.066Z,6.50
2019-02-10T05:07:13.449Z,6.50
2019-02-10T05:09:44.738Z,6.50
2019-02-10T05:12:16.415Z,6.60
2019-02-10T05:14:48.280Z,6.70
2019-02-10T05:17:20.270Z,6.70
2019-02-10T05:19:51.674Z,6.70
2019-02-10T05:22:23.274Z,6.70
2019-02-10T05:24:54.256Z,6.60
2019-02-10T05:27:25.500Z,6.70
2019-02-10T05:29:57.331Z,6.70
2019-02-10T05:32:28.661Z,6.80
2019-02-10T05:35:00.279Z,6.70
2019-02-10T05:37:32.517Z,6.70
2019-02-10T05:40:03.794Z,6.80
2019-02-10T05:42:35.117Z,6.80
2019-02-10T05:45:06.259Z,6.80
2019-02-10T05:47:37.824Z,6.90
2019-02-10T05:50:09.703Z,6.80
2019-02-10T05:52:40.730Z,6.80
2019-02-10T05:55:12.587Z,6.90
2019-02-10T05:57:44.155Z,6.90
2019-02-10T06:00:15.777Z,6.90
2019-02-10T06:02:47.312Z,6.90
2019-02-10T06:05:22.283Z,7.00
2019-02-10T06:07:53.905Z,7.00
2019-02-10T06:10:25.254Z,7.10
2019-02-10T06:12:57.121Z,7.20
2019-02-10T06:15:28.374Z,7.50
2019-02-10T06:17:59.390Z,7.60
2019-02-10T06:20:30.943Z,7.80
2019-02-10T06:23:02.810Z,8.10
2019-02-10T06:25:33.904Z,8.30
2019-02-10T06:28:05.491Z,8.60
2019-02-10T06:30:37.345Z,8.90
2019-02-10T06:33:08.059Z,9.00
2019-02-10T06:35:39.615Z,9.30
2019-02-10T06:38:11.214Z,9.40
2019-02-10T06:40:43.017Z,9.60
2019-02-10T06:43:14.575Z,9.80
2019-02-10T06:45:46.167Z,9.90
2019-02-10T06:48:17.998Z,10.10
2019-02-10T06:50:49.235Z,10.10
2019-02-10T06:53:20.307Z,10.20
2019-02-10T06:55:52.035Z,10.40
2019-02-10T06:58:24.057Z,10.40
2019-02-10T07:01:03.574Z,10.60
2019-02-10T07:04:15.466Z,10.60
2019-02-10T07:06:47.088Z,10.50
2019-02-10T07:09:19.101Z,10.60
2019-02-10T07:11:50.725Z,10.60
2019-02-10T07:14:38.820Z,10.60
2019-02-10T07:17:51.418Z,10.70
2019-02-10T07:20:57.410Z,10.70
2019-02-10T07:24:21.623Z,10.80
2019-02-10T07:26:57.830Z,10.90
2019-02-10T07:30:34.080Z,10.90
2019-02-10T07:33:27.936Z,11.10
2019-02-10T07:36:35.603Z,11.30
2019-02-10T07:39:52.838Z,11.30
2019-02-10T07:43:27.262Z,11.40
2019-02-10T07:47:02.955Z,11.50
2019-02-10T07:50:42.870Z,11.60
2019-02-10T07:54:19.594Z,11.70
2019-02-10T07:57:52.102Z,11.80
2019-02-10T08:00:48.863Z,11.90
2019-02-10T08:04:13.093Z,12.10
2019-02-10T08:07:20.398Z,12.20
2019-02-10T08:10:35.133Z,12.20
2019-02-10T08:13:42.571Z,12.20
2019-02-10T08:16:41.644Z,12.40
2019-02-10T08:20:03.375Z,12.40
2019-02-10T08:23:11.858Z,12.50
2019-02-10T08:26:48.450Z,12.50
2019-02-10T08:29:54.723Z,12.50
2019-02-10T08:33:24.237Z,12.60
2019-02-10T08:36:09.435Z,12.70
2019-02-10T08:39:27.550Z,12.80
2019-02-10T08:42:26.313Z,12.90
2019-02-10T08:45:20.866Z,13.00
2019-02-10T08:48:40.198Z,13.10
2019-02-10T08:52:10.143Z,13.10
2019-02-10T08:54:41.624Z,13.20
2019-02-10T08:57:13.731Z,13.30
2019-02-10T08:59:45.349Z,13.40
2019-02-10T09:02:16.807Z,13.40
2019-02-10T09:04:47.805Z,13.40
2019-02-10T09:07:19.551Z,13.40
2019-02-10T09:09:51.043Z,13.50
2019-02-10T09:12:22.651Z,13.60
2019-02-10T09:14:54.561Z,13.70
2019-02-10T09:17:25.661Z,13.70
2019-02-10T09:19:57.994Z,13.70
2019-02-10T09:22:28.991Z,13.80
2019-02-10T09:25:00.535Z,13.90
2019-02-10T09:27:31.873Z,13.90
2019-02-10T09:30:03.169Z,13.90
2019-02-10T09:32:34.801Z,14.00
2019-02-10T09:35:06.596Z,13.90
2019-02-10T09:37:38.395Z,14.00
2019-02-10T09:40:11.591Z,13.90
2019-02-10T09:42:42.593Z,14.00
2019-02-10T09:45:14.408Z,14.00
2019-02-10T09:47:46.324Z,14.10
2019-02-10T09:50:20.239Z,14.10
2019-02-10T09:52:52.102Z,14.30
2019-02-10T09:55:23.554Z,14.50
2019-02-10T09:57:55.140Z,14.60
2019-02-10T10:00:26.789Z,14.80
2019-02-10T10:02:58.384Z,14.80
2019-02-10T10:05:29.383Z,14.90
2019-02-10T10:08:00.967Z,15.00
2019-02-10T10:10:32.795Z,15.00
2019-02-10T10:13:04.641Z,15.10
2019-02-10T10:15:37.296Z,15.10
2019-02-10T10:18:09.761Z,14.90
2019-02-10T10:20:41.267Z,14.90
2019-02-10T10:23:12.616Z,14.80
2019-02-10T10:25:44.449Z,14.80
2019-02-10T10:28:15.797Z,14.70
2019-02-10T10:30:46.919Z,14.70
2019-02-10T10:33:18.395Z,14.60
2019-02-10T10:35:49.972Z,14.40
2019-02-10T10:38:21.558Z,14.20
2019-02-10T10:40:53.632Z,14.00
2019-02-10T10:43:25.720Z,13.90
2019-02-10T10:45:57.335Z,13.80
2019-02-10T10:48:29.140Z,13.70
2019-02-10T10:51:00.235Z,13.80
2019-02-10T10:53:31.228Z,13.90
2019-02-10T10:56:02.389Z,13.90
2019-02-10T10:58:34.104Z,13.90
2019-02-10T11:01:05.499Z,14.10
2019-02-10T11:03:36.548Z,14.10
2019-02-10T11:06:08.825Z,14.00
2019-02-10T11:08:40.141Z,14.00
2019-02-10T11:11:11.172Z,14.00
2019-02-10T11:13:42.746Z,13.90
2019-02-10T11:16:13.920Z,13.90
2019-02-10T11:18:45.661Z,13.90
2019-02-10T11:21:17.483Z,13.90
2019-02-10T11:23:48.867Z,13.80
2019-02-10T11:26:20.323Z,13.80
2019-02-10T11:28:51.639Z,13.70
2019-02-10T11:31:23.477Z,13.70
2019-02-10T11:33:55.025Z,13.70
2019-02-10T11:36:26.583Z,13.60
2019-02-10T11:38:58.437Z,13.40
2019-02-10T11:41:30.218Z,13.20
2019-02-10T11:44:01.694Z,13.20
2019-02-10T11:46:33.610Z,13.10
2019-02-10T11:49:05.296Z,13.00
2019-02-10T11:51:36.909Z,13.00
2019-02-10T11:54:08.277Z,12.90
2019-02-10T11:56:39.981Z,12.90
2019-02-10T11:59:11.274Z,12.80
2019-02-10T12:01:43.087Z,12.80
2019-02-10T12:04:14.377Z,12.60
2019-02-10T12:06:45.496Z,12.60
2019-02-10T12:09:16.263Z,12.50
2019-02-10T12:11:47.937Z,12.40
2019-02-10T12:14:18.758Z,12.30
2019-02-10T12:16:50.845Z,12.20
2019-02-10T12:19:22.731Z,12.00
2019-02-10T12:21:54.621Z,11.90
2019-02-10T12:24:26.203Z,11.80
2019-02-10T12:26:57.847Z,11.60
2019-02-10T12:29:29.138Z,11.40
2019-02-10T12:32:00.517Z,11.40
2019-02-10T12:34:32.226Z,11.30
2019-02-10T12:37:03.962Z,11.20
2019-02-10T12:39:35.376Z,11.10
2019-02-10T12:42:06.444Z,10.90
2019-02-10T12:44:37.172Z,10.90
2019-02-10T12:47:09.040Z,10.90
2019-02-10T12:49:40.504Z,10.80
2019-02-10T12:52:12.360Z,10.80
2019-02-10T12:54:44.122Z,10.90
2019-02-10T12:57:16.075Z,10.90
2019-02-10T12:59:47.694Z,10.90
2019-02-10T13:02:19.112Z,10.90
2019-02-10T13:04:50.757Z,11.00
2019-02-10T13:07:21.786Z,10.90
2019-02-10T13:09:53.379Z,10.90
2019-02-10T13:12:24.987Z,10.90
2019-02-10T13:14:56.713Z,10.90
2019-02-10T13:17:27.749Z,11.00
2019-02-10T13:19:59.694Z,11.00
2019-02-10T13:22:30.997Z,11.00
2019-02-10T13:25:02.641Z,11.10
2019-02-10T13:27:33.360Z,11.10
2019-02-10T13:30:04.780Z,11.10
2019-02-10T13:32:35.929Z,11.10
2019-02-10T13:35:06.876Z,11.20
2019-02-10T13:37:38.696Z,11.20
2019-02-10T13:40:16.616Z,11.10
2019-02-10T13:42:47.864Z,11.00
2019-02-10T13:45:19.135Z,11.00
2019-02-10T13:47:51.543Z,11.00
2019-02-10T13:50:23.425Z,11.00
2019-02-10T13:52:54.782Z,10.90
2019-02-10T13:55:26.425Z,10.90
2019-02-10T13:57:58.103Z,10.80
2019-02-10T14:00:30.124Z,10.70
2019-02-10T14:03:01.888Z,10.60
2019-02-10T14:05:33.560Z,10.60
2019-02-10T14:08:05.164Z,10.60
2019-02-10T14:10:36.470Z,10.50
2019-02-10T14:13:07.822Z,10.50
2019-02-10T14:15:39.623Z,10.60
2019-02-10T14:18:11.160Z,10.70
2019-02-10T14:20:43.225Z,10.70
2019-02-10T14:23:15.354Z,10.70
2019-02-10T14:25:47.237Z,10.70
2019-02-10T14:28:19.346Z,10.70
2019-02-10T14:30:50.907Z,10.70
2019-02-10T14:33:22.542Z,10.60
2019-02-10T14:35:54.558Z,10.60
2019-02-10T14:38:26.449Z,10.40
2019-02-10T14:40:57.905Z,10.20
2019-02-10T14:43:29.009Z,10.00
2019-02-10T14:46:00.303Z,9.70
2019-02-10T14:48:31.868Z,9.60
2019-02-10T14:51:03.500Z,9.30
2019-02-10T14:53:34.808Z,9.10
2019-02-10T14:56:07.019Z,9.00
2019-02-10T14:58:43.309Z,8.80
2019-02-10T15:01:14.856Z,8.60
2019-02-10T15:03:45.854Z,8.50
2019-02-10T15:06:17.139Z,8.50
2019-02-10T15:08:48.758Z,8.40
2019-02-10T15:11:20.707Z,8.40
2019-02-10T15:13:51.784Z,8.40
2019-02-10T15:16:23.415Z,8.30
2019-02-10T15:18:54.474Z,8.30
2019-02-10T15:21:26.067Z,8.40
2019-02-10T15:23:57.947Z,8.30
2019-02-10T15:26:29.648Z,8.30
2019-02-10T15:29:01.682Z,8.30
2019-02-10T15:31:33.055Z,8.30
2019-02-10T15:34:04.213Z,8.20
2019-02-10T15:36:35.396Z,8.20
2019-02-10T15:39:08.040Z,8.20
2019-02-10T15:41:39.631Z,8.20
2019-02-10T15:44:10.858Z,8.10
2019-02-10T15:46:42.767Z,8.00
2019-02-10T15:49:13.803Z,8.10
2019-02-10T15:51:45.411Z,8.10
2019-02-10T15:54:17.430Z,8.10
2019-02-10T15:56:48.425Z,8.00
2019-02-10T15:59:20.294Z,8.00
2019-02-10T16:01:52.200Z,8.00
2019-02-10T16:04:22.917Z,7.90
2019-02-10T16:06:54.591Z,7.90
2019-02-10T16:09:25.969Z,7.90
2019-02-10T16:11:57.936Z,7.90
2019-02-10T16:14:31.129Z,7.80
2019-02-10T16:17:03.280Z,7.60
2019-02-10T16:19:35.031Z,7.60
2019-02-10T16:22:05.981Z,7.50
2019-02-10T16:24:37.363Z,7.60
2019-02-10T16:27:08.717Z,7.50
2019-02-10T16:29:40.298Z,7.50
2019-02-10T16:32:12.094Z,7.40
2019-02-10T16:34:43.116Z,7.40
2019-02-10T16:37:14.795Z,7.30
2019-02-10T16:39:46.881Z,7.30
2019-02-10T16:42:18.134Z,7.30
2019-02-10T16:44:49.425Z,7.30
2019-02-10T16:47:20.482Z,7.20
2019-02-10T16:49:52.136Z,7.40
2019-02-10T16:52:24.413Z,7.30
2019-02-10T16:54:56.223Z,7.30
2019-02-10T16:57:27.746Z,7.40
2019-02-10T16:59:59.488Z,7.40
2019-02-10T17:02:30.804Z,7.40
2019-02-10T17:05:02.391Z,7.40
2019-02-10T17:07:33.939Z,7.50
2019-02-10T17:10:05.393Z,7.60
2019-02-10T17:12:37.041Z,7.60
2019-02-10T17:15:09.714Z,7.60
2019-02-10T17:17:41.176Z,7.60
2019-02-10T17:20:13.428Z,7.60
2019-02-10T17:22:44.739Z,7.60
2019-02-10T17:25:17.334Z,7.70
2019-02-10T17:27:48.637Z,7.70
2019-02-10T17:30:19.626Z,7.60
2019-02-10T17:32:51.107Z,7.50
2019-02-10T17:35:22.692Z,7.60
2019-02-10T17:37:53.966Z,7.60
2019-02-10T17:40:31.728Z,7.60
2019-02-10T17:43:03.343Z,7.60
2019-02-10T17:45:35.313Z,7.70
2019-02-10T17:48:07.031Z,7.60
2019-02-10T17:50:37.998Z,7.70
2019-02-10T17:53:10.068Z,7.60
2019-02-10T17:55:41.827Z,7.60
2019-02-10T17:58:13.774Z,7.50
2019-02-10T18:00:48.544Z,7.50
2019-02-10T18:03:21.144Z,7.40
2019-02-10T18:05:52.893Z,7.40
2019-02-10T18:08:24.399Z,7.40
2019-02-10T18:10:55.627Z,7.30
2019-02-10T18:13:28.266Z,7.20
2019-02-10T18:16:30.081Z,7.10
2019-02-10T18:19:17.661Z,7.10
2019-02-10T18:22:10.926Z,7.10
2019-02-10T18:25:12.864Z,7.10
2019-02-10T18:28:03.778Z,7.10
2019-02-10T18:31:02.679Z,7.10
2019-02-10T18:33:58.946Z,7.20
2019-02-10T18:36:48.514Z,7.20
2019-02-10T18:39:35.391Z,7.20
2019-02-10T18:42:37.571Z,7.10
2019-02-10T18:45:26.228Z,7.10
2019-02-10T18:48:19.701Z,7.10
2019-02-10T18:51:05.158Z,7.00
2019-02-10T18:54:07.995Z,6.90
2019-02-10T18:57:13.826Z,7.00
2019-02-10T19:00:04.026Z,7.00
2019-02-10T19:03:03.532Z,7.00
2019-02-10T19:05:47.424Z,7.00
2019-02-10T19:08:26.655Z,7.00
2019-02-10T19:11:12.071Z,7.00
2019-02-10T19:14:06.000Z,7.00
2019-02-10T19:17:05.624Z,7.00
2019-02-10T19:19:54.778Z,7.00
2019-02-10T19:22:41.883Z,7.00
2019-02-10T19:25:32.352Z,7.10
2019-02-10T19:28:22.211Z,7.10
2019-02-10T19:31:00.293Z,7.10
2019-02-10T19:34:03.432Z,7.10
2019-02-10T19:36:54.166Z,7.20
2019-02-10T19:39:36.177Z,7.30
2019-02-10T19:42:25.047Z,7.20
2019-02-10T19:45:13.818Z,7.30
2019-02-10T19:48:17.177Z,7.30
2019-02-10T19:51:00.924Z,7.30
2019-02-10T19:53:44.635Z,7.20
2019-02-10T19:56:34.605Z,7.10
2019-02-10T19:59:16.977Z,7.10
2019-02-10T20:02:13.288Z,7.00
2019-02-10T20:05:02.672Z,6.90
2019-02-10T20:08:00.377Z,6.80
2019-02-10T20:10:41.126Z,6.80
2019-02-10T20:13:40.867Z,6.70
2019-02-10T20:16:37.679Z,6.70
2019-02-10T20:19:34.794Z,6.80
2019-02-10T20:22:38.381Z,6.70
2019-02-10T20:25:29.098Z,6.70
2019-02-10T20:28:25.840Z,6.60
2019-02-10T20:31:19.289Z,6.50
2019-02-10T20:34:10.031Z,6.50
2019-02-10T20:37:03.305Z,6.40
2019-02-10T20:40:03.142Z,6.40
2019-02-10T20:42:56.702Z,6.30
2019-02-10T20:45:46.014Z,6.30
2019-02-10T20:48:41.856Z,6.30
2019-02-10T20:51:34.921Z,6.20
2019-02-10T20:54:18.514Z,6.10
2019-02-10T20:56:58.470Z,6.00
2019-02-10T20:59:47.740Z,6.00
2019-02-10T21:02:56.167Z,6.00
2019-02-10T21:05:32.989Z,6.00
2019-02-10T21:08:17.114Z,5.90
2019-02-10T21:11:22.369Z,5.90
2019-02-10T21:14:15.006Z,6.00
2019-02-10T21:17:08.156Z,5.90
2019-02-10T21:19:49.755Z,5.90
2019-02-10T21:22:32.233Z,5.90
2019-02-10T21:25:21.087Z,5.90
2019-02-10T21:28:01.812Z,5.90
2019-02-10T21:30:50.965Z,5.90
2019-02-10T21:33:44.016Z,6.00
2019-02-10T21:36:24.725Z,6.10
2019-02-10T21:39:05.679Z,6.00
2019-02-10T21:41:55.272Z,6.10
2019-02-10T21:44:34.669Z,6.10
2019-02-10T21:47:25.245Z,6.20
2019-02-10T21:49:56.360Z,6.20
2019-02-10T21:52:27.662Z,6.30
2019-02-10T21:54:59.434Z,6.30
2019-02-10T21:57:30.605Z,6.30
2019-02-10T22:00:02.174Z,6.40
2019-02-10T22:02:33.472Z,6.40
2019-02-10T22:05:05.588Z,6.30
2019-02-10T22:07:37.117Z,6.20
2019-02-10T22:10:10.627Z,6.30
2019-02-10T22:12:41.606Z,6.50
2019-02-10T22:15:13.443Z,6.50
2019-02-10T22:17:45.331Z,6.50
2019-02-10T22:20:17.011Z,6.50
2019-02-10T22:22:48.292Z,6.50
2019-02-10T22:25:20.194Z,6.40
2019-02-10T22:27:51.435Z,6.40
2019-02-10T22:30:23.029Z,6.40
2019-02-10T22:32:54.447Z,6.40
2019-02-10T22:35:25.968Z,6.40
2019-02-10T22:37:57.229Z,6.30
2019-02-10T22:40:28.798Z,6.30
2019-02-10T22:42:59.800Z,6.20
2019-02-10T22:45:31.101Z,6.30
2019-02-10T22:48:02.042Z,6.20
2019-02-10T22:50:33.931Z,6.30
2019-02-10T22:53:05.216Z,6.30
2019-02-10T22:55:37.159Z,6.20
2019-02-10T22:58:08.974Z,6.30
2019-02-10T23:00:54.509Z,6.30
2019-02-10T23:03:26.340Z,6.20
2019-02-10T23:05:57.738Z,6.20
2019-02-10T23:08:28.695Z,6.20
2019-02-10T23:10:59.891Z,6.30
2019-02-10T23:13:31.621Z,6.20
2019-02-10T23:16:03.182Z,6.20
2019-02-10T23:18:34.453Z,6.30
2019-02-10T23:21:05.721Z,6.10
2019-02-10T23:23:37.600Z,6.20
2019-02-10T23:26:09.189Z,6.20
2019-02-10T23:28:41.015Z,6.30
2019-02-10T23:31:12.690Z,6.30
2019-02-10T23:33:45.315Z,6.30
2019-02-10T23:36:16.631Z,6.40
2019-02-10T23:38:48.462Z,6.40
2019-02-10T23:41:20.074Z,6.30
2019-02-10T23:43:51.066Z,6.20
2019-02-10T23:46:22.106Z,6.40
2019-02-10T23:48:53.044Z,6.40
2019-02-10T23:51:24.357Z,6.40
2019-02-10T23:53:55.887Z,6.40
2019-02-10T23:56:27.385Z,6.20
2019-02-10T23:58:58.831Z,6.30
